createdAt,value
2018-07-21T00:00:55.170Z,5.60
2018-07-21T00:02:57.365Z,5.20
2018-07-21T00:04:59.556Z,5.50
2018-07-21T00:07:01.831Z,5.93
2018-07-21T00:09:06.369Z,6.27
2018-07-21T00:11:08.727Z,6.87
2018-07-21T00:13:11.119Z,5.60
2018-07-21T00:15:13.362Z,6.43
2018-07-21T00:17:15.628Z,5.90
2018-07-21T00:19:18.375Z,6.30
2018-07-21T00:21:20.747Z,6.23
2018-07-21T00:23:23.067Z,6.27
2018-07-21T00:25:25.880Z,5.83
2018-07-21T00:27:28.140Z,6.70
2018-07-21T00:29:30.465Z,5.77
2018-07-21T00:31:32.771Z,5.93
2018-07-21T00:33:34.917Z,5.63
2018-07-21T00:35:37.218Z,6.20
2018-07-21T00:37:39.433Z,6.60
2018-07-21T00:39:41.651Z,6.10
2018-07-21T00:41:44.312Z,7.10
2018-07-21T00:43:46.582Z,6.33
2018-07-21T00:45:48.856Z,6.40
2018-07-21T00:47:51.081Z,6.33
2018-07-21T00:49:53.323Z,5.90
2018-07-21T00:51:55.957Z,7.80
2018-07-21T00:53:58.321Z,6.23
2018-07-21T00:56:01.739Z,6.37
2018-07-21T00:58:03.988Z,5.33
2018-07-21T01:00:06.503Z,6.57
2018-07-21T01:02:08.913Z,5.97
2018-07-21T01:04:11.124Z,6.60
2018-07-21T01:06:13.456Z,5.90
2018-07-21T01:08:15.667Z,6.03
2018-07-21T01:10:18.032Z,6.70
2018-07-21T01:12:20.361Z,6.10
2018-07-21T01:14:23.004Z,6.13
2018-07-21T01:16:25.214Z,5.63
2018-07-21T01:18:27.722Z,6.33
2018-07-21T01:20:29.940Z,6.20
2018-07-21T01:22:32.221Z,6.50
2018-07-21T01:24:34.449Z,5.80
2018-07-21T01:26:36.693Z,6.40
2018-07-21T01:28:39.555Z,5.90
2018-07-21T01:30:41.888Z,6.30
2018-07-21T01:32:44.162Z,6.80
2018-07-21T01:34:46.495Z,6.50
2018-07-21T01:36:48.808Z,6.80
2018-07-21T01:38:51.084Z,6.30
2018-07-21T01:40:53.906Z,5.73
2018-07-21T01:42:56.300Z,6.47
2018-07-21T01:44:58.521Z,6.50
2018-07-21T01:47:00.737Z,6.87
2018-07-21T01:49:03.242Z,6.60
2018-07-21T01:51:05.536Z,6.50
2018-07-21T01:53:08.264Z,5.93
2018-07-21T01:55:10.494Z,6.43
2018-07-21T01:57:12.756Z,6.47
2018-07-21T01:59:15.000Z,7.00
2018-07-21T02:01:17.296Z,6.67
2018-07-21T02:03:19.590Z,6.70
2018-07-21T02:05:21.842Z,6.70
2018-07-21T02:07:24.151Z,6.53
2018-07-21T02:09:27.590Z,7.20
2018-07-21T02:11:29.879Z,6.57
2018-07-21T02:13:32.241Z,7.23
2018-07-21T02:15:34.476Z,6.10
2018-07-21T02:17:36.692Z,6.67
2018-07-21T02:19:38.898Z,6.97
2018-07-21T02:21:41.345Z,8.07
2018-07-21T02:23:43.755Z,6.43
2018-07-21T02:25:45.917Z,6.47
2018-07-21T02:27:48.131Z,6.77
2018-07-21T02:29:50.327Z,6.00
2018-07-21T02:31:52.515Z,6.57
2018-07-21T02:33:54.691Z,6.50
2018-07-21T02:35:56.927Z,6.97
2018-07-21T02:37:59.374Z,6.37
2018-07-21T02:40:01.583Z,6.63
2018-07-21T02:42:03.758Z,6.43
2018-07-21T02:44:06.006Z,6.63
2018-07-21T02:46:08.303Z,6.90
2018-07-21T02:48:10.543Z,6.57
2018-07-21T02:50:12.765Z,6.60
2018-07-21T02:52:14.973Z,6.43
2018-07-21T02:54:17.191Z,6.90
2018-07-21T02:56:19.601Z,6.57
2018-07-21T02:58:21.962Z,6.50
2018-07-21T03:00:24.198Z,6.70
2018-07-21T03:02:26.380Z,6.53
2018-07-21T03:04:28.584Z,6.93
2018-07-21T03:06:31.055Z,6.77
2018-07-21T03:08:33.704Z,6.83
2018-07-21T03:10:35.892Z,6.40
2018-07-21T03:12:38.159Z,6.60
2018-07-21T03:14:40.407Z,7.07
2018-07-21T03:16:43.538Z,6.80
2018-07-21T03:18:45.799Z,7.27
2018-07-21T03:20:48.020Z,6.93
2018-07-21T03:22:50.253Z,6.60
2018-07-21T03:24:52.963Z,6.93
2018-07-21T03:26:55.156Z,7.53
2018-07-21T03:28:57.384Z,6.90
2018-07-21T03:30:59.733Z,7.17
2018-07-21T03:33:01.974Z,7.40
2018-07-21T03:35:04.196Z,7.00
2018-07-21T03:37:06.409Z,6.90
2018-07-21T03:39:09.762Z,6.57
2018-07-21T03:41:11.956Z,7.33
2018-07-21T03:43:14.167Z,7.17
2018-07-21T03:45:16.354Z,7.63
2018-07-21T03:47:19.003Z,7.03
2018-07-21T03:49:21.222Z,6.93
2018-07-21T03:51:23.430Z,7.10
2018-07-21T03:53:25.605Z,7.37
2018-07-21T03:55:27.851Z,7.13
2018-07-21T03:57:30.209Z,6.70
2018-07-21T03:59:32.425Z,6.90
2018-07-21T04:01:34.619Z,7.03
2018-07-21T04:03:36.862Z,7.60
2018-07-21T04:05:39.127Z,6.70
2018-07-21T04:07:41.353Z,8.60
2018-07-21T04:09:55.752Z,7.20
2018-07-21T04:11:57.938Z,7.10
2018-07-21T04:14:00.107Z,7.50
2018-07-21T04:16:02.293Z,7.17
2018-07-21T04:18:04.687Z,6.53
2018-07-21T04:20:06.868Z,7.57
2018-07-21T04:22:09.066Z,7.40
2018-07-21T04:24:11.297Z,7.60
2018-07-21T04:26:13.436Z,7.33
2018-07-21T04:28:15.705Z,7.47
2018-07-21T04:30:17.890Z,7.60
2018-07-21T04:32:20.331Z,7.57
2018-07-21T04:34:22.516Z,6.77
2018-07-21T04:36:24.814Z,7.33
2018-07-21T04:38:27.030Z,7.00
2018-07-21T04:40:29.273Z,7.07
2018-07-21T04:42:31.585Z,7.43
2018-07-21T04:44:33.943Z,7.60
2018-07-21T04:46:36.171Z,7.67
2018-07-21T04:48:38.461Z,7.00
2018-07-21T04:50:40.830Z,7.80
2018-07-21T04:52:43.705Z,7.47
2018-07-21T04:54:46.388Z,7.20
2018-07-21T04:56:48.609Z,7.53
2018-07-21T04:58:52.022Z,7.20
2018-07-21T05:00:54.350Z,7.33
2018-07-21T05:02:56.736Z,7.03
2018-07-21T05:04:59.010Z,7.80
2018-07-21T05:07:01.283Z,7.33
2018-07-21T05:09:05.571Z,6.60
2018-07-21T05:11:07.902Z,7.37
2018-07-21T05:13:10.203Z,7.00
2018-07-21T05:15:12.435Z,7.30
2018-07-21T05:17:14.739Z,7.53
2018-07-21T05:19:16.989Z,6.87
2018-07-21T05:21:19.229Z,7.80
2018-07-21T05:23:21.570Z,6.80
2018-07-21T05:25:24.076Z,7.63
2018-07-21T05:27:26.414Z,7.03
2018-07-21T05:29:28.623Z,7.03
2018-07-21T05:31:30.848Z,7.43
2018-07-21T05:33:33.097Z,7.33
2018-07-21T05:35:35.544Z,6.97
2018-07-21T05:37:37.780Z,6.93
2018-07-21T05:39:40.084Z,7.27
2018-07-21T05:41:42.580Z,7.40
2018-07-21T05:43:44.971Z,7.10
2018-07-21T05:45:47.237Z,7.73
2018-07-21T05:47:49.484Z,7.27
2018-07-21T05:49:53.915Z,7.20
2018-07-21T05:51:56.098Z,6.63
2018-07-21T05:53:58.343Z,7.33
2018-07-21T05:56:00.623Z,6.97
2018-07-21T05:58:02.825Z,6.60
2018-07-21T06:00:07.075Z,7.00
2018-07-21T06:02:09.544Z,6.60
2018-07-21T06:04:11.727Z,6.90
2018-07-21T06:06:13.995Z,7.07
2018-07-21T06:08:16.173Z,7.40
2018-07-21T06:10:18.359Z,6.90
2018-07-21T06:12:21.073Z,6.93
2018-07-21T06:14:24.154Z,7.03
2018-07-21T06:16:26.343Z,6.97
2018-07-21T06:18:29.558Z,6.87
2018-07-21T06:20:32.028Z,6.80
2018-07-21T06:22:34.603Z,7.07
2018-07-21T06:24:36.841Z,7.10
2018-07-21T06:26:39.054Z,7.13
2018-07-21T06:28:41.708Z,6.43
2018-07-21T06:30:44.051Z,6.77
2018-07-21T06:32:46.494Z,6.97
2018-07-21T06:34:48.702Z,7.00
2018-07-21T06:36:50.942Z,6.60
2018-07-21T06:38:53.142Z,7.10
2018-07-21T06:40:55.424Z,7.03
2018-07-21T06:42:57.672Z,6.50
2018-07-21T06:44:59.862Z,7.30
2018-07-21T06:47:02.141Z,7.50
2018-07-21T06:49:04.343Z,7.50
2018-07-21T06:51:06.958Z,6.90
2018-07-21T06:53:09.199Z,7.10
2018-07-21T06:55:12.460Z,6.90
2018-07-21T06:57:14.898Z,7.07
2018-07-21T06:59:17.090Z,6.63
2018-07-21T07:01:19.473Z,7.30
2018-07-21T07:03:21.743Z,6.77
2018-07-21T07:05:24.611Z,6.73
2018-07-21T07:07:26.863Z,7.00
2018-07-21T07:09:29.063Z,6.60
2018-07-21T07:11:31.321Z,7.17
2018-07-21T07:13:33.518Z,6.67
2018-07-21T07:15:35.712Z,6.80
2018-07-21T07:17:37.898Z,7.23
2018-07-21T07:19:40.146Z,6.43
2018-07-21T07:21:42.523Z,6.80
2018-07-21T07:23:44.706Z,6.80
2018-07-21T07:25:46.898Z,6.67
2018-07-21T07:27:49.208Z,6.70
2018-07-21T07:29:51.937Z,6.50
2018-07-21T07:31:54.269Z,6.70
2018-07-21T07:33:56.521Z,6.53
2018-07-21T07:35:58.814Z,7.27
2018-07-21T07:38:01.013Z,7.27
2018-07-21T07:40:03.423Z,6.60
2018-07-21T07:42:05.736Z,6.70
2018-07-21T07:44:08.293Z,6.87
2018-07-21T07:46:10.556Z,6.23
2018-07-21T07:48:12.790Z,6.50
2018-07-21T07:50:15.084Z,6.53
2018-07-21T07:52:17.305Z,5.63
2018-07-21T07:54:19.530Z,6.33
2018-07-21T07:56:21.801Z,6.03
2018-07-21T07:58:24.349Z,5.97
2018-07-21T08:00:26.599Z,6.70
2018-07-21T08:02:29.505Z,6.63
2018-07-21T08:04:31.737Z,6.60
2018-07-21T08:06:33.943Z,6.37
2018-07-21T08:08:36.782Z,6.00
2018-07-21T08:10:39.047Z,7.03
2018-07-21T08:12:41.255Z,6.73
2018-07-21T08:14:44.016Z,6.50
2018-07-21T08:16:47.001Z,6.70
2018-07-21T08:18:49.325Z,6.37
2018-07-21T08:20:51.632Z,6.33
2018-07-21T08:22:53.985Z,6.70
2018-07-21T08:24:56.250Z,6.37
2018-07-21T08:26:58.541Z,6.27
2018-07-21T08:29:00.959Z,6.37
2018-07-21T08:31:03.617Z,6.33
2018-07-21T08:33:05.984Z,6.00
2018-07-21T08:35:08.235Z,6.00
2018-07-21T08:37:10.819Z,6.50
2018-07-21T08:39:13.051Z,6.07
2018-07-21T08:41:15.364Z,6.20
2018-07-21T08:43:18.564Z,6.67
2018-07-21T08:45:20.825Z,6.47
2018-07-21T08:47:23.205Z,6.20
2018-07-21T08:49:25.492Z,6.17
2018-07-21T08:51:27.830Z,6.13
2018-07-21T08:53:30.715Z,6.40
2018-07-21T08:55:33.056Z,6.43
2018-07-21T08:57:35.576Z,6.10
2018-07-21T08:59:37.916Z,5.97
2018-07-21T09:01:40.138Z,6.27
2018-07-21T09:03:42.921Z,5.53
2018-07-21T09:05:45.161Z,6.43
2018-07-21T09:07:47.416Z,5.60
2018-07-21T09:09:49.648Z,6.40
2018-07-21T09:11:52.060Z,6.30
2018-07-21T09:13:54.533Z,6.17
2018-07-21T09:15:56.868Z,6.20
2018-07-21T09:17:59.143Z,6.33
2018-07-21T09:20:01.389Z,6.03
2018-07-21T09:22:03.638Z,5.93
2018-07-21T09:24:05.804Z,6.03
2018-07-21T09:26:08.101Z,6.23
2018-07-21T09:28:10.521Z,6.20
2018-07-21T09:30:12.688Z,6.47
2018-07-21T09:32:15.198Z,6.00
2018-07-21T09:34:17.556Z,6.07
2018-07-21T09:36:20.355Z,5.90
2018-07-21T09:38:22.624Z,5.87
2018-07-21T09:40:25.932Z,6.17
2018-07-21T09:42:28.249Z,5.63
2018-07-21T09:44:30.980Z,6.10
2018-07-21T09:46:33.224Z,5.97
2018-07-21T09:48:35.469Z,5.93
2018-07-21T09:50:37.658Z,5.63
2018-07-21T09:52:40.187Z,5.93
2018-07-21T09:54:42.392Z,6.30
2018-07-21T09:56:44.592Z,6.23
2018-07-21T09:58:46.797Z,6.47
2018-07-21T10:00:54.346Z,6.03
2018-07-21T10:02:56.592Z,6.20
2018-07-21T10:04:59.901Z,5.53
2018-07-21T10:07:02.194Z,5.63
2018-07-21T10:09:06.519Z,6.00
2018-07-21T10:11:08.832Z,5.80
2018-07-21T10:13:11.082Z,5.90
2018-07-21T10:15:13.461Z,5.77
2018-07-21T10:17:15.719Z,5.80
2018-07-21T10:19:20.125Z,5.80
2018-07-21T10:21:22.335Z,6.17
2018-07-21T10:23:24.678Z,5.47
2018-07-21T10:25:32.239Z,5.67
2018-07-21T10:27:39.812Z,5.80
2018-07-21T10:29:42.084Z,5.50
2018-07-21T10:31:44.445Z,6.03
2018-07-21T10:33:46.693Z,5.77
2018-07-21T10:35:48.933Z,5.70
2018-07-21T10:37:51.101Z,5.97
2018-07-21T10:39:53.443Z,5.67
2018-07-21T10:41:55.724Z,5.80
2018-07-21T10:43:57.985Z,5.90
2018-07-21T10:46:00.376Z,5.90
2018-07-21T10:48:02.643Z,5.80
2018-07-21T10:50:04.968Z,5.90
2018-07-21T10:52:09.148Z,5.87
2018-07-21T10:54:12.598Z,5.63
2018-07-21T10:56:14.791Z,5.73
2018-07-21T10:58:17.025Z,5.93
2018-07-21T11:00:19.330Z,5.73
2018-07-21T11:02:21.639Z,5.73
2018-07-21T11:04:23.848Z,5.67
2018-07-21T11:06:26.090Z,6.43
2018-07-21T11:08:28.287Z,5.70
2018-07-21T11:10:30.493Z,5.67
2018-07-21T11:12:32.829Z,5.57
2018-07-21T11:14:35.077Z,5.83
2018-07-21T11:16:37.341Z,5.77
2018-07-21T11:18:39.546Z,5.87
2018-07-21T11:20:41.761Z,5.93
2018-07-21T11:22:43.970Z,5.67
2018-07-21T11:24:46.317Z,5.60
2018-07-21T11:26:48.505Z,5.67
2018-07-21T11:28:50.718Z,5.50
2018-07-21T11:30:52.924Z,5.87
2018-07-21T11:32:55.133Z,5.90
2018-07-21T11:34:57.327Z,5.60
2018-07-21T11:36:59.564Z,5.93
2018-07-21T11:39:01.867Z,6.07
2018-07-21T11:41:04.203Z,6.23
2018-07-21T11:43:08.170Z,5.67
2018-07-21T11:45:10.385Z,5.80
2018-07-21T11:47:12.653Z,5.53
2018-07-21T11:49:14.901Z,5.13
2018-07-21T11:51:17.116Z,6.00
2018-07-21T11:53:19.359Z,5.67
2018-07-21T11:55:21.593Z,5.30
2018-07-21T11:57:23.822Z,6.07
2018-07-21T11:59:26.091Z,5.40
2018-07-21T12:01:28.343Z,5.70
2018-07-21T12:03:30.608Z,5.50
2018-07-21T12:05:32.944Z,5.30
2018-07-21T12:07:35.278Z,5.50
2018-07-21T12:09:37.574Z,5.63
2018-07-21T12:11:39.842Z,5.30
2018-07-21T12:13:42.136Z,5.40
2018-07-21T12:15:44.357Z,5.47
2018-07-21T12:17:46.557Z,5.10
2018-07-21T12:19:48.786Z,5.57
2018-07-21T12:21:51.014Z,5.73
2018-07-21T12:23:53.228Z,5.37
2018-07-21T12:25:55.441Z,5.30
2018-07-21T12:27:57.611Z,5.70
2018-07-21T12:29:59.831Z,5.53
2018-07-21T12:32:02.683Z,5.43
2018-07-21T12:34:05.020Z,5.13
2018-07-21T12:36:07.205Z,5.63
2018-07-21T12:38:09.406Z,5.23
2018-07-21T12:40:11.639Z,5.50
2018-07-21T12:42:13.819Z,5.47
2018-07-21T12:44:16.043Z,5.63
2018-07-21T12:46:18.863Z,5.63
2018-07-21T12:48:21.085Z,5.63
2018-07-21T12:50:23.299Z,5.03
2018-07-21T12:52:25.456Z,5.60
2018-07-21T12:54:27.785Z,5.27
2018-07-21T12:56:30.179Z,5.67
2018-07-21T12:58:32.563Z,5.77
2018-07-21T13:00:35.468Z,5.17
2018-07-21T13:02:37.756Z,4.97
2018-07-21T13:04:39.966Z,5.27
2018-07-21T13:06:42.242Z,5.93
2018-07-21T13:08:44.442Z,5.53
2018-07-21T13:10:46.653Z,5.67
2018-07-21T13:12:48.874Z,5.40
2018-07-21T13:14:51.703Z,5.77
2018-07-21T13:16:53.980Z,5.57
2018-07-21T13:18:56.269Z,5.63
2018-07-21T13:20:58.484Z,5.60
2018-07-21T13:23:01.188Z,6.00
2018-07-21T13:25:03.475Z,5.70
2018-07-21T13:27:06.251Z,5.80
2018-07-21T13:29:09.626Z,5.63
2018-07-21T13:31:11.879Z,5.60
2018-07-21T13:33:14.195Z,5.30
2018-07-21T13:35:16.424Z,5.13
2018-07-21T13:37:18.687Z,5.33
2018-07-21T13:39:20.918Z,5.47
2018-07-21T13:41:23.187Z,5.50
2018-07-21T13:43:25.402Z,5.43
2018-07-21T13:45:27.630Z,5.33
2018-07-21T13:47:29.817Z,5.40
2018-07-21T13:49:32.025Z,6.03
2018-07-21T13:51:34.367Z,5.90
2018-07-21T13:53:36.695Z,5.53
2018-07-21T13:55:39.048Z,5.43
2018-07-21T13:57:41.456Z,5.13
2018-07-21T13:59:43.663Z,5.30
2018-07-21T14:01:46.284Z,5.47
2018-07-21T14:03:48.564Z,5.93
2018-07-21T14:05:50.810Z,5.90
2018-07-21T14:07:53.110Z,5.53
2018-07-21T14:09:55.377Z,5.30
2018-07-21T14:11:57.625Z,5.83
2018-07-21T14:14:00.255Z,5.67
2018-07-21T14:16:03.104Z,5.80
2018-07-21T14:18:05.742Z,5.63
2018-07-21T14:20:08.018Z,5.20
2018-07-21T14:22:10.371Z,5.77
2018-07-21T14:24:12.584Z,5.70
2018-07-21T14:26:14.970Z,5.80
2018-07-21T14:28:17.245Z,5.10
2018-07-21T14:30:19.478Z,5.77
2018-07-21T14:32:21.687Z,5.57
2018-07-21T14:34:23.954Z,5.60
2018-07-21T14:36:26.344Z,5.77
2018-07-21T14:38:28.403Z,5.60
2018-07-21T14:40:30.603Z,5.67
2018-07-21T14:42:32.958Z,5.40
2018-07-21T14:44:35.229Z,5.60
2018-07-21T14:46:37.505Z,5.47
2018-07-21T14:48:39.822Z,5.90
2018-07-21T14:50:41.935Z,5.30
2018-07-21T14:52:44.144Z,5.80
2018-07-21T14:54:46.478Z,6.10
2018-07-21T14:56:48.571Z,5.90
2018-07-21T14:58:50.846Z,5.53
2018-07-21T15:00:53.057Z,5.57
2018-07-21T15:02:55.277Z,5.77
2018-07-21T15:04:57.441Z,5.70
2018-07-21T15:06:59.718Z,5.40
2018-07-21T15:09:01.999Z,5.47
2018-07-21T15:11:04.221Z,5.60
2018-07-21T15:13:07.147Z,5.33
2018-07-21T15:15:09.363Z,5.47
2018-07-21T15:17:12.388Z,5.30
2018-07-21T15:19:14.613Z,5.40
2018-07-21T15:21:16.868Z,5.60
2018-07-21T15:23:19.108Z,5.40
2018-07-21T15:25:21.311Z,5.40
2018-07-21T15:27:23.493Z,5.30
2018-07-21T15:29:25.689Z,5.40
2018-07-21T15:31:27.936Z,5.17
2018-07-21T15:33:30.132Z,5.50
2018-07-21T15:35:32.407Z,5.63
2018-07-21T15:37:34.630Z,5.10
2018-07-21T15:39:36.929Z,5.07
2018-07-21T15:41:39.207Z,5.00
2018-07-21T15:43:41.449Z,5.20
2018-07-21T15:45:43.716Z,5.37
2018-07-21T15:47:46.385Z,5.63
2018-07-21T15:49:48.591Z,4.90
2018-07-21T15:51:50.756Z,5.60
2018-07-21T15:53:52.929Z,5.07
2018-07-21T15:55:55.184Z,5.30
2018-07-21T15:57:57.390Z,5.00
2018-07-21T15:59:59.628Z,5.40
2018-07-21T16:02:01.855Z,5.23
2018-07-21T16:04:04.078Z,5.17
2018-07-21T16:06:06.310Z,5.23
2018-07-21T16:08:08.607Z,5.33
2018-07-21T16:10:11.028Z,5.50
2018-07-21T16:12:13.264Z,5.17
2018-07-21T16:14:15.430Z,4.97
2018-07-21T16:16:17.616Z,4.87
2018-07-21T16:18:19.871Z,5.47
2018-07-21T16:20:22.107Z,5.13
2018-07-21T16:22:24.355Z,4.67
2018-07-21T16:24:26.607Z,5.23
2018-07-21T16:26:29.524Z,5.00
2018-07-21T16:28:31.720Z,5.10
2018-07-21T16:30:33.951Z,5.07
2018-07-21T16:32:36.162Z,5.10
2018-07-21T16:34:38.824Z,5.00
2018-07-21T16:36:40.997Z,5.13
2018-07-21T16:38:43.542Z,4.90
2018-07-21T16:40:46.343Z,4.40
2018-07-21T16:42:48.586Z,4.97
2018-07-21T16:44:50.796Z,4.90
2018-07-21T16:46:53.818Z,4.93
2018-07-21T16:48:56.134Z,4.83
2018-07-21T16:50:58.321Z,4.87
2018-07-21T16:53:00.556Z,5.13
2018-07-21T16:55:02.933Z,6.53
2018-07-21T16:57:05.271Z,7.60
2018-07-21T16:59:07.462Z,5.20
2018-07-21T17:01:09.702Z,9.40
2018-07-21T17:03:11.896Z,5.17
2018-07-21T17:05:14.177Z,7.23
2018-07-21T17:07:16.477Z,6.57
2018-07-21T17:09:18.723Z,15.63
2018-07-21T17:11:20.987Z,17.90
2018-07-21T17:13:23.208Z,13.73
2018-07-21T17:15:25.484Z,14.33
2018-07-21T17:17:27.691Z,15.20
2018-07-21T17:19:29.918Z,20.60
2018-07-21T17:21:32.186Z,14.67
2018-07-21T17:23:34.358Z,28.60
2018-07-21T17:25:36.942Z,16.30
2018-07-21T17:27:39.126Z,17.33
2018-07-21T17:29:41.430Z,20.20
2018-07-21T17:31:43.649Z,21.17
2018-07-21T17:33:45.870Z,20.70
2018-07-21T17:35:48.446Z,17.87
2018-07-21T17:37:50.640Z,13.73
2018-07-21T17:39:52.944Z,10.07
2018-07-21T17:41:55.792Z,20.53
2018-07-21T17:43:58.023Z,9.83
2018-07-21T17:46:17.161Z,18.30
2018-07-21T17:48:19.831Z,14.17
2018-07-21T17:50:22.123Z,10.33
2018-07-21T17:52:24.394Z,13.00
2018-07-21T17:54:26.627Z,20.27
2018-07-21T17:56:28.906Z,10.37
2018-07-21T17:58:31.213Z,9.93
2018-07-21T18:00:33.404Z,10.73
2018-07-21T18:02:36.187Z,7.57
2018-07-21T18:04:38.401Z,12.07
2018-07-21T18:06:40.773Z,13.70
2018-07-21T18:08:42.999Z,8.27
2018-07-21T18:10:45.303Z,17.87
2018-07-21T18:12:47.547Z,14.40
2018-07-21T18:14:49.845Z,12.17
2018-07-21T18:16:52.102Z,7.00
2018-07-21T18:18:54.829Z,15.17
2018-07-21T18:20:57.365Z,8.17
2018-07-21T18:22:59.563Z,8.77
2018-07-21T18:25:01.798Z,7.67
2018-07-21T18:27:06.392Z,12.23
2018-07-21T18:29:08.612Z,12.27
2018-07-21T18:31:10.968Z,9.40
2018-07-21T18:33:13.274Z,11.20
2018-07-21T18:35:15.466Z,7.97
2018-07-21T18:37:18.195Z,6.00
2018-07-21T18:39:20.591Z,12.90
2018-07-21T18:41:22.808Z,8.90
2018-07-21T18:43:25.515Z,8.00
2018-07-21T18:45:27.740Z,9.10
2018-07-21T18:47:30.060Z,7.43
2018-07-21T18:49:32.552Z,5.37
2018-07-21T18:51:34.897Z,8.33
2018-07-21T18:53:37.587Z,11.00
2018-07-21T18:55:40.464Z,5.40
2018-07-21T18:57:43.189Z,5.70
2018-07-21T18:59:45.397Z,5.50
2018-07-21T19:01:47.621Z,8.00
2018-07-21T19:03:49.922Z,5.57
2018-07-21T19:05:52.221Z,6.70
2018-07-21T19:07:55.114Z,8.27
2018-07-21T19:09:57.414Z,5.20
2018-07-21T19:12:05.480Z,5.40
2018-07-21T19:14:07.739Z,9.63
2018-07-21T19:16:15.467Z,8.60
2018-07-21T19:18:17.766Z,5.70
2018-07-21T19:20:25.838Z,8.90
2018-07-21T19:22:28.498Z,5.53
2018-07-21T19:24:30.935Z,7.17
2018-07-21T19:26:39.211Z,5.30
2018-07-21T19:28:41.471Z,6.90
2018-07-21T19:30:44.279Z,10.33
2018-07-21T19:32:51.945Z,5.37
2018-07-21T19:34:54.213Z,6.93
2018-07-21T19:36:56.526Z,6.20
2018-07-21T19:38:58.773Z,7.70
2018-07-21T19:41:06.578Z,7.47
2018-07-21T19:43:09.035Z,5.53
2018-07-21T19:45:11.576Z,7.67
2018-07-21T19:47:14.051Z,7.73
2018-07-21T19:49:16.305Z,5.60
2018-07-21T19:51:18.569Z,4.97
2018-07-21T19:55:29.780Z,5.33
2018-07-21T19:57:32.229Z,6.40
2018-07-21T19:59:34.581Z,5.47
2018-07-21T20:01:36.927Z,5.10
2018-07-21T20:03:39.195Z,5.27
2018-07-21T20:05:41.436Z,7.00
2018-07-21T20:07:43.772Z,5.03
2018-07-21T20:09:46.104Z,6.57
2018-07-21T20:11:48.310Z,5.10
2018-07-21T20:13:50.676Z,5.30
2018-07-21T20:15:53.008Z,5.57
2018-07-21T20:17:55.309Z,5.43
2018-07-21T20:19:57.480Z,5.60
2018-07-21T20:21:59.792Z,5.43
2018-07-21T20:24:02.196Z,5.83
2018-07-21T20:26:04.565Z,6.07
2018-07-21T20:28:06.782Z,6.70
2018-07-21T20:30:09.027Z,9.10
2018-07-21T20:32:11.251Z,5.63
2018-07-21T20:34:13.571Z,5.17
2018-07-21T20:36:16.369Z,5.83
2018-07-21T20:38:18.720Z,7.20
2018-07-21T20:40:21.760Z,5.00
2018-07-21T20:42:24.039Z,5.40
2018-07-21T20:44:26.294Z,5.37
2018-07-21T20:46:28.539Z,5.47
2018-07-21T20:48:31.129Z,5.73
2018-07-21T20:50:33.553Z,5.90
2018-07-21T20:52:36.119Z,7.37
2018-07-21T20:54:38.444Z,5.73
2018-07-21T20:56:40.686Z,6.93
2018-07-21T20:58:42.918Z,6.33
2018-07-21T21:00:45.219Z,9.53
2018-07-21T21:02:47.535Z,5.43
2018-07-21T21:04:49.810Z,5.47
2018-07-21T21:06:52.052Z,6.13
2018-07-21T21:08:54.539Z,7.83
2018-07-21T21:10:56.802Z,6.50
2018-07-21T21:12:59.156Z,5.77
2018-07-21T21:15:01.690Z,5.73
2018-07-21T21:17:04.096Z,5.57
2018-07-21T21:19:07.088Z,7.80
2018-07-21T21:21:09.304Z,5.80
2018-07-21T21:23:11.604Z,6.00
2018-07-21T21:25:13.904Z,5.47
2018-07-21T21:27:16.130Z,5.57
2018-07-21T21:29:18.374Z,6.00
2018-07-21T21:31:20.695Z,6.40
2018-07-21T21:33:23.131Z,7.70
2018-07-21T21:35:25.445Z,5.40
2018-07-21T21:37:27.763Z,6.53
2018-07-21T21:39:30.081Z,5.40
2018-07-21T21:41:32.662Z,5.80
2018-07-21T21:43:34.979Z,6.10
2018-07-21T21:45:37.327Z,5.50
2018-07-21T21:47:39.603Z,6.50
2018-07-21T21:49:42.054Z,5.97
2018-07-21T21:51:44.283Z,5.63
2018-07-21T21:53:46.541Z,7.77
2018-07-21T21:55:48.816Z,5.97
2018-07-21T21:57:51.497Z,6.20
2018-07-21T21:59:53.728Z,6.37
2018-07-21T22:01:55.963Z,6.00
2018-07-21T22:03:58.494Z,6.30
2018-07-21T22:06:00.870Z,6.30
2018-07-21T22:08:03.267Z,5.80
2018-07-21T22:10:05.784Z,6.57
2018-07-21T22:12:08.755Z,6.13
2018-07-21T22:14:11.545Z,7.80
2018-07-21T22:16:14.034Z,5.87
2018-07-21T22:18:16.261Z,5.97
2018-07-21T22:20:18.635Z,8.73
2018-07-21T22:22:20.972Z,6.33
2018-07-21T22:24:23.213Z,8.67
2018-07-21T22:26:25.531Z,6.70
2018-07-21T22:28:28.338Z,6.63
2018-07-21T22:30:30.617Z,6.10
2018-07-21T22:32:32.874Z,5.97
2018-07-21T22:34:35.347Z,6.23
2018-07-21T22:36:37.567Z,6.13
2018-07-21T22:38:39.799Z,7.47
2018-07-21T22:40:42.743Z,6.30
2018-07-21T22:42:45.224Z,8.47
2018-07-21T22:44:47.540Z,6.90
2018-07-21T22:46:49.907Z,9.27
2018-07-21T22:48:52.312Z,6.03
2018-07-21T22:50:54.648Z,6.17
2018-07-21T22:52:56.946Z,5.70
2018-07-21T22:54:59.313Z,6.63
2018-07-21T22:57:01.650Z,6.00
2018-07-21T22:59:05.608Z,6.87
2018-07-21T23:01:08.038Z,5.87
2018-07-21T23:03:10.334Z,6.33
2018-07-21T23:05:12.963Z,6.13
2018-07-21T23:07:15.306Z,8.27
2018-07-21T23:09:17.565Z,7.10
2018-07-21T23:11:19.904Z,6.50
2018-07-21T23:13:22.199Z,6.40
2018-07-21T23:15:24.623Z,8.30
2018-07-21T23:17:26.922Z,7.20
2018-07-21T23:19:29.544Z,7.07
2018-07-21T23:21:31.969Z,6.27
2018-07-21T23:23:34.336Z,6.50
2018-07-21T23:25:36.756Z,6.50
2018-07-21T23:27:39.090Z,6.60
2018-07-21T23:29:41.312Z,6.97
2018-07-21T23:31:43.715Z,7.37
2018-07-21T23:33:46.485Z,7.17
2018-07-21T23:35:49.319Z,6.57
2018-07-21T23:37:51.735Z,6.37
2018-07-21T23:39:54.107Z,7.03
2018-07-21T23:41:56.490Z,6.73
2018-07-21T23:43:58.768Z,6.83
2018-07-21T23:46:01.103Z,9.80
2018-07-21T23:48:03.986Z,7.63
2018-07-21T23:50:06.419Z,7.03
2018-07-21T23:52:08.737Z,6.77
2018-07-21T23:54:11.063Z,6.70
2018-07-21T23:56:13.388Z,7.87
2018-07-21T23:58:15.655Z,7.33
